Time;durP1;ratioP1;P1;durP2;ratioP2;P2;SDS_P1;SDS_P2;PMS_P1;PMS_P2;Temp;Humidity;BMP_temperature;BMP_pressure;BME280_temperature;BME280_humidity;BME280_pressure;Samples;Min_cycle;Max_cycle;Signal;HPM_P1;HPM_P2
2022/01/17 00:02:23;;;;;;;22.30;2.30;;;;;;;6.37;76.14;103069.56;5047318;28;20370;-42
2022/01/17 00:04:49;;;;;;;28.17;2.85;;;;;;;6.33;75.81;103067.19;5030351;28;20068;-43
2022/01/17 00:07:15;;;;;;;22.27;1.80;;;;;;;6.26;76.52;103076.56;5029696;28;20030;-43
2022/01/17 00:09:41;;;;;;;37.03;2.97;;;;;;;6.22;76.42;103078.56;5031660;28;20140;-43
2022/01/17 00:12:07;;;;;;;28.38;2.25;;;;;;;6.19;76.77;103081.44;5031796;28;20102;-43
2022/01/17 00:14:39;;;;;;;22.92;2.42;;;;;;;6.15;76.33;103074.56;5031918;28;20025;-43
2022/01/17 00:19:38;;;;;;;32.33;3.75;;;;;;;6.07;76.88;103076.88;5031641;28;20388;-42
2022/01/17 00:22:04;;;;;;;34.80;2.75;;;;;;;6.03;77.07;103078.00;5031280;28;20544;-43
2022/01/17 00:24:29;;;;;;;35.50;2.70;;;;;;;6.02;76.04;103085.19;5031567;28;20108;-43
2022/01/17 00:26:55;;;;;;;29.05;3.35;;;;;;;6.02;76.11;103084.31;5031234;28;20025;-44
2022/01/17 00:29:20;;;;;;;25.27;1.92;;;;;;;5.99;76.11;103085.38;5046944;28;20401;-43
2022/01/17 00:31:46;;;;;;;22.95;2.50;;;;;;;5.99;76.18;103093.41;5031569;28;20022;-43
2022/01/17 00:34:11;;;;;;;28.00;2.00;;;;;;;5.94;76.56;103100.84;5031578;28;20473;-45
2022/01/17 00:36:36;;;;;;;26.65;2.40;;;;;;;5.92;77.62;103092.91;5030843;28;20028;-43
2022/01/17 00:39:02;;;;;;;26.00;2.80;;;;;;;5.89;77.57;103090.41;5041160;28;20021;-43
2022/01/17 00:41:27;;;;;;;32.65;4.82;;;;;;;5.86;78.34;103081.72;5031400;28;20031;-43
2022/01/17 00:43:53;;;;;;;37.30;3.65;;;;;;;5.88;77.83;103078.00;5031473;28;20373;-43
2022/01/17 00:46:18;;;;;;;45.05;3.85;;;;;;;5.85;78.73;103072.00;5031119;28;20440;-43
2022/01/17 00:48:43;;;;;;;34.03;2.72;;;;;;;5.82;79.14;103075.72;5046586;28;20033;-43
2022/01/17 00:51:08;;;;;;;22.40;2.08;;;;;;;5.84;78.44;103088.97;5031438;28;20017;-44
2022/01/17 00:53:36;;;;;;;33.33;2.22;;;;;;;5.84;78.87;103089.81;5046636;28;20108;-44
2022/01/17 00:56:05;;;;;;;28.73;2.30;;;;;;;5.79;78.90;103091.94;5031162;28;20040;-43
2022/01/17 00:58:30;;;;;;;;;;;;;;;5.76;79.55;103076.09;5031939;28;20034;-44
2022/01/17 01:00:55;;;;;;;36.85;3.38;;;;;;;5.73;79.98;103078.97;5031269;28;19909;-43
2022/01/17 01:03:21;;;;;;;28.00;2.47;;;;;;;5.70;80.63;103084.50;5031413;28;20036;-45
2022/01/17 01:05:46;;;;;;;30.55;3.65;;;;;;;5.67;80.86;103074.00;5031228;28;20025;-44
2022/01/17 01:08:12;;;;;;;33.08;4.00;;;;;;;5.68;81.00;103079.25;5030969;28;20059;-43
2022/01/17 01:10:37;;;;;;;24.20;3.17;;;;;;;5.67;81.02;103066.00;5031074;28;20025;-44
2022/01/17 01:13:03;;;;;;;36.88;3.63;;;;;;;5.67;81.76;103068.66;5031301;28;20409;-44
2022/01/17 01:18:14;;;;;;;26.17;2.90;;;;;;;5.69;81.91;103072.97;5033719;28;20072;-44
2022/01/17 01:28:34;;;;;;;30.77;2.33;;;;;;;5.61;82.61;103090.41;5034662;28;20048;-44
2022/01/17 01:31:03;;;;;;;33.75;2.80;;;;;;;5.58;82.67;103093.25;5034646;28;20018;-43
2022/01/17 01:33:33;;;;;;;26.90;2.85;;;;;;;5.59;82.58;103092.31;5034654;28;20049;-45
2022/01/17 01:36:07;;;;;;;38.38;2.92;;;;;;;5.59;82.71;103095.00;5034154;28;20037;-43
2022/01/17 01:38:33;;;;;;;33.58;2.65;;;;;;;5.61;82.52;103095.75;5034302;28;20040;-44
2022/01/17 01:40:58;;;;;;;31.23;3.50;;;;;;;5.59;82.80;103106.53;5034389;28;20025;-44
2022/01/17 01:43:24;;;;;;;27.48;2.25;;;;;;;5.64;82.97;103107.13;5029739;28;20025;-43
2022/01/17 01:45:56;;;;;;;21.08;2.55;;;;;;;5.62;82.90;103100.16;5025636;28;20109;-43
2022/01/17 01:48:21;;;;;;;41.65;2.70;;;;;;;5.59;83.50;103098.53;5034434;28;20025;-43
2022/01/17 01:50:47;;;;;;;23.35;2.50;;;;;;;5.60;83.78;103115.41;5029710;28;20485;-43
2022/01/17 01:53:12;;;;;;;33.40;2.47;;;;;;;5.58;84.19;103117.31;5014352;28;20026;-43
2022/01/17 01:55:38;;;;;;;33.40;2.80;;;;;;;5.57;84.41;103118.25;5027837;28;20017;-44
2022/01/17 01:58:03;;;;;;;23.60;2.53;;;;;;;5.55;85.22;103114.81;5053010;28;20037;-43
2022/01/17 02:00:29;;;;;;;32.50;3.50;;;;;;;5.55;85.45;103118.34;5054253;28;20063;-43
2022/01/17 02:02:54;;;;;;;26.75;3.30;;;;;;;5.50;86.15;103107.97;5035252;28;20037;-44
2022/01/17 02:05:20;;;;;;;42.00;3.38;;;;;;;5.53;86.63;103104.25;5033826;28;20030;-45
2022/01/17 02:07:45;;;;;;;24.60;3.78;;;;;;;5.53;86.92;103108.69;5033820;28;20049;-42
2022/01/17 02:10:11;;;;;;;25.98;2.90;;;;;;;5.50;87.06;103107.97;5034017;28;20037;-43
2022/01/17 02:12:36;;;;;;;39.05;3.60;;;;;;;5.48;87.56;103101.84;5032926;28;20026;-44
2022/01/17 02:15:03;;;;;;;31.13;3.72;;;;;;;5.51;87.78;103095.47;5032091;28;20036;-42
2022/01/17 02:17:31;;;;;;;32.33;4.07;;;;;;;5.47;88.19;103094.78;5033910;28;20469;-43
2022/01/17 02:20:05;;;;;;;35.40;3.42;;;;;;;5.44;88.38;103097.63;5033637;28;20029;-43
2022/01/17 02:22:30;;;;;;;31.77;3.75;;;;;;;5.46;88.70;103087.72;5033003;28;20068;-44
2022/01/17 02:24:56;;;;;;;37.38;4.75;;;;;;;5.47;88.72;103092.09;5033578;28;20085;-43
2022/01/17 02:27:21;;;;;;;35.78;4.15;;;;;;;5.48;88.49;103088.50;5033488;28;20034;-43
2022/01/17 02:29:47;;;;;;;43.03;4.40;;;;;;;5.46;88.90;103095.72;5033287;28;20060;-44
2022/01/17 02:32:12;;;;;;;27.38;3.60;;;;;;;5.47;89.07;103088.56;5033385;28;20067;-43
2022/01/17 02:34:42;;;;;;;37.78;4.25;;;;;;;5.43;89.19;103093.25;5031952;28;20060;-43
2022/01/17 02:37:09;;;;;;;37.75;3.83;;;;;;;5.49;89.76;103097.34;5033104;28;20080;-43
2022/01/17 02:39:35;;;;;;;36.87;4.83;;;;;;;5.46;89.73;103093.06;5033301;28;20025;-43
2022/01/17 02:42:01;;;;;;;39.80;6.40;;;;;;;5.47;90.57;103104.59;5033169;28;20025;-43
2022/01/17 02:44:26;;;;;;;39.13;4.38;;;;;;;5.42;90.90;103096.84;5033049;28;20113;-43
2022/01/17 02:46:52;;;;;;;41.08;5.20;;;;;;;5.41;91.50;103095.16;5032976;28;20105;-43
2022/01/17 02:49:17;;;;;;;26.92;4.80;;;;;;;5.42;91.58;103104.03;5032943;28;20534;-44
2022/01/17 02:51:47;;;;;;;32.35;5.85;;;;;;;5.42;92.01;103096.00;5033124;28;20029;-43
2022/01/17 02:54:12;;;;;;;35.53;5.32;;;;;;;5.41;92.45;103095.16;5033355;28;20076;-43
2022/01/17 02:56:38;;;;;;;43.35;6.07;;;;;;;5.40;92.78;103100.59;5048148;28;20021;-43
2022/01/17 02:59:03;;;;;;;43.97;6.22;;;;;;;5.43;93.23;103109.28;5033031;28;20163;-43
2022/01/17 03:01:29;;;;;;;34.78;7.13;;;;;;;5.43;93.68;103111.94;5032814;28;20374;-43
2022/01/17 03:03:55;;;;;;;47.42;7.10;;;;;;;5.44;93.92;103113.66;5032599;28;20064;-43
2022/01/17 03:06:20;;;;;;;47.05;6.88;;;;;;;5.45;94.17;103122.53;5032337;28;20025;-42
2022/01/17 03:08:46;;;;;;;51.72;7.35;;;;;;;5.48;94.53;103115.19;5032514;28;20083;-43
2022/01/17 03:11:15;;;;;;;43.50;8.77;;;;;;;5.47;94.53;103121.47;5032781;28;20044;-44
2022/01/17 03:13:40;;;;;;;48.55;9.07;;;;;;;5.48;94.69;103128.56;5032330;28;20112;-45
2022/01/17 03:16:10;;;;;;;43.97;8.82;;;;;;;5.52;95.03;103120.34;5030932;28;20128;-43
2022/01/17 03:18:39;;;;;;;51.97;8.63;;;;;;;5.50;94.95;103110.63;5032304;28;20096;-43
2022/01/17 03:21:06;;;;;;;46.50;8.40;;;;;;;5.53;95.17;103104.25;5032360;28;20029;-43
2022/01/17 03:23:32;;;;;;;43.90;9.98;;;;;;;5.51;95.33;103108.81;5032677;28;20029;-42
2022/01/17 03:25:58;;;;;;;57.75;9.02;;;;;;;5.54;95.48;103105.09;5032228;28;20048;-42
2022/01/17 03:28:25;;;;;;;62.03;9.10;;;;;;;5.53;95.47;103103.38;5031790;28;20116;-43
2022/01/17 03:30:51;;;;;;;63.35;10.18;;;;;;;5.52;95.68;103085.63;5032279;28;20018;-42
2022/01/17 03:33:20;;;;;;;54.40;10.35;;;;;;;5.52;95.80;103086.50;5031912;28;20040;-43
2022/01/17 03:35:46;;;;;;;38.65;8.48;;;;;;;5.47;95.75;103089.44;5031980;28;20026;-42
2022/01/17 03:38:14;;;;;;;46.85;9.15;;;;;;;5.46;96.16;103090.41;5030532;28;20099;-43
2022/01/17 03:40:40;;;;;;;49.80;12.57;;;;;;;5.48;96.17;103084.97;5033274;28;20021;-42
2022/01/17 03:43:05;;;;;;;61.20;9.48;;;;;;;5.46;96.18;103085.06;5042355;28;20048;-43
2022/01/17 03:45:31;;;;;;;45.35;9.93;;;;;;;5.44;96.10;103083.44;5047082;28;20041;-43
2022/01/17 03:47:57;;;;;;;54.67;11.25;;;;;;;5.44;96.31;103096.78;5046901;28;20112;-43
2022/01/17 03:50:24;;;;;;;57.60;11.80;;;;;;;5.43;96.43;103093.25;5031022;28;20053;-42
2022/01/17 03:52:50;;;;;;;69.53;10.57;;;;;;;5.42;96.38;103082.66;5032205;28;20397;-42
2022/01/17 03:55:20;;;;;;;46.50;10.77;;;;;;;5.40;96.57;103077.44;5031742;28;20041;-43
2022/01/17 03:57:46;;;;;;;56.78;11.05;;;;;;;5.40;96.32;103082.75;5014691;28;20033;-42
2022/01/17 04:00:16;;;;;;;73.65;12.18;;;;;;;5.36;96.68;103086.56;5030501;28;20026;-42
2022/01/17 04:02:41;;;;;;;71.60;12.60;;;;;;;5.37;96.81;103090.97;5031434;28;20101;-43
2022/01/17 04:05:07;;;;;;;44.65;11.23;;;;;;;5.38;97.04;103089.16;5032040;28;20087;-42
2022/01/17 04:07:33;;;;;;;55.60;11.48;;;;;;;5.36;97.07;103089.22;5031553;28;20068;-42
2022/01/17 04:09:58;;;;;;;73.15;12.38;;;;;;;5.41;97.18;103091.63;5031870;28;20029;-42
2022/01/17 04:12:24;;;;;;;61.22;11.60;;;;;;;5.40;97.19;103093.44;5030279;28;20029;-42
2022/01/17 04:14:54;;;;;;;64.13;11.73;;;;;;;5.44;97.08;103100.31;5031764;28;20040;-42
2022/01/17 04:17:19;;;;;;;58.42;11.10;;;;;;;5.43;97.12;103095.94;5031552;28;20410;-42
2022/01/17 04:19:48;;;;;;;61.95;12.13;;;;;;;5.43;96.90;103095.94;5031602;28;20060;-42
2022/01/17 04:22:14;;;;;;;48.85;10.70;;;;;;;5.43;96.91;103092.41;5031578;28;20025;-42
2022/01/17 04:24:39;;;;;;;61.85;10.10;;;;;;;5.42;96.96;103102.19;5030466;28;20078;-43
2022/01/17 04:27:04;;;;;;;47.72;10.25;;;;;;;5.43;96.75;103109.28;5031343;28;20037;-42
2022/01/17 04:29:30;;;;;;;54.03;10.45;;;;;;;5.46;96.68;103106.41;5031067;28;20045;-42
2022/01/17 04:31:55;;;;;;;73.25;9.85;;;;;;;5.44;96.73;103105.66;5031550;28;20112;-42
2022/01/17 04:34:20;;;;;;;49.75;9.40;;;;;;;5.47;96.61;103109.94;5031736;28;20029;-43
2022/01/17 04:36:45;;;;;;;53.53;12.15;;;;;;;5.46;96.54;103109.09;5046741;28;20032;-42
2022/01/17 04:39:15;;;;;;;54.58;10.48;;;;;;;5.46;96.62;103119.78;5031650;28;20528;-42
2022/01/17 04:41:41;;;;;;;53.38;10.18;;;;;;;5.47;96.55;103121.47;5026831;28;20506;-42
2022/01/17 04:46:58;;;;;;;50.17;9.50;;;;;;;5.46;96.56;103125.13;5022700;28;20089;-42
2022/01/17 04:49:24;;;;;;;50.03;9.68;;;;;;;5.43;96.61;103116.44;5031284;28;20049;-42
2022/01/17 04:51:53;;;;;;;55.75;9.65;;;;;;;5.46;97.01;103119.78;5034765;28;20030;-43
2022/01/17 04:54:39;;;;;;;61.05;11.35;;;;;;;5.49;96.83;103122.25;5034830;28;20056;-42
2022/01/17 04:57:04;;;;;;;48.78;9.23;;;;;;;5.49;96.92;103114.25;5035111;28;20029;-43
2022/01/17 04:59:29;;;;;;;42.28;9.18;;;;;;;5.50;96.78;103118.66;5034983;28;20063;-43
2022/01/17 05:01:55;;;;;;;61.42;10.43;;;;;;;5.51;96.71;103124.84;5034232;28;20033;-45
2022/01/17 05:04:20;;;;;;;51.55;11.63;;;;;;;5.53;97.04;103124.72;5034799;28;20064;-44
2022/01/17 05:06:45;;;;;;;54.70;12.95;;;;;;;5.53;96.83;103130.06;5034796;28;20111;-44
2022/01/17 05:09:11;;;;;;;70.57;16.05;;;;;;;5.54;97.00;103126.47;5034590;28;20045;-43
2022/01/17 05:11:36;;;;;;;74.97;18.10;;;;;;;5.57;97.03;103127.13;5034918;28;20036;-43
2022/01/17 05:14:01;;;;;;;88.88;20.33;;;;;;;5.58;97.09;103127.97;5035063;28;20452;-43
2022/01/17 05:16:34;;;;;;;82.63;20.73;;;;;;;5.58;97.42;103136.00;5041664;28;20415;-43
2022/01/17 05:21:43;;;;;;;76.03;23.73;;;;;;;5.60;96.99;103136.78;5051256;28;20040;-43
2022/01/17 05:24:09;;;;;;;85.88;24.13;;;;;;;5.58;97.09;103146.69;5037809;28;20478;-43
2022/01/17 05:26:34;;;;;;;106.22;26.67;;;;;;;5.58;97.16;103147.56;5032647;28;20021;-43
2022/01/17 05:28:59;;;;;;;88.40;27.38;;;;;;;5.57;97.21;103144.97;5034598;28;20029;-43
2022/01/17 05:31:24;;;;;;;93.53;27.13;;;;;;;5.54;97.44;103142.50;5034337;28;20469;-43
2022/01/17 05:33:50;;;;;;;95.00;28.80;;;;;;;5.55;97.57;103142.38;5050006;28;20017;-43
2022/01/17 05:36:16;;;;;;;99.65;27.65;;;;;;;5.58;97.67;103139.56;5033368;28;20045;-43
2022/01/17 05:38:41;;;;;;;94.97;29.30;;;;;;;5.62;97.54;103135.72;5033164;28;20026;-43
2022/01/17 05:41:06;;;;;;;99.38;27.75;;;;;;;5.62;97.42;103129.53;5034022;28;20680;-43
2022/01/17 05:43:32;;;;;;;87.40;26.33;;;;;;;5.64;97.22;103127.63;5034540;28;20029;-44
2022/01/17 05:45:57;;;;;;;95.78;28.10;;;;;;;5.63;97.26;103137.44;5033622;28;20060;-43
2022/01/17 05:48:22;;;;;;;102.03;27.27;;;;;;;5.62;97.08;103121.53;5034483;28;20026;-42
2022/01/17 05:50:48;;;;;;;117.10;28.60;;;;;;;5.58;97.55;103122.66;5034488;28;20029;-44
2022/01/17 05:53:14;;;;;;;98.80;27.02;;;;;;;5.58;96.79;103122.66;5034631;28;20041;-42
2022/01/17 05:55:40;;;;;;;87.43;25.77;;;;;;;5.59;96.73;103135.06;5034762;28;20033;-42
2022/01/17 05:58:05;;;;;;;78.55;25.02;;;;;;;5.58;96.60;103142.22;5033098;28;20025;-43
2022/01/17 06:00:31;;;;;;;83.25;22.85;;;;;;;5.52;96.32;103137.22;5033779;28;20095;-44
2022/01/17 06:02:56;;;;;;;92.07;24.00;;;;;;;5.49;96.19;103138.28;5033195;28;20029;-43
2022/01/17 06:05:21;;;;;;;83.50;21.83;;;;;;;5.51;95.84;103138.19;5034461;28;20025;-43
2022/01/17 06:07:47;;;;;;;78.97;20.88;;;;;;;5.48;95.92;103149.06;5048922;28;20045;-43
2022/01/17 06:10:12;;;;;;;78.60;21.10;;;;;;;5.47;95.73;103153.53;5014543;28;20030;-43
2022/01/17 06:12:37;;;;;;;107.28;23.08;;;;;;;5.44;95.92;103156.38;5014377;28;20030;-42
2022/01/17 06:15:04;;;;;;;98.15;21.83;;;;;;;5.42;95.98;103160.94;5030569;28;20017;-43
2022/01/17 06:17:29;;;;;;;60.80;19.45;;;;;;;5.41;95.95;103159.25;5033559;28;20029;-42
2022/01/17 06:19:54;;;;;;;85.57;17.88;;;;;;;5.42;95.97;103162.78;5033872;28;20389;-43
2022/01/17 06:22:20;;;;;;;68.45;17.33;;;;;;;5.45;95.85;103160.78;5033917;28;20095;-42
2022/01/17 06:24:45;;;;;;;64.30;15.75;;;;;;;5.45;95.67;103170.59;5033540;28;20413;-42
2022/01/17 06:27:10;;;;;;;63.05;13.68;;;;;;;5.44;95.36;103169.75;5033340;28;20047;-43
2022/01/17 06:29:36;;;;;;;59.00;14.32;;;;;;;5.46;95.29;103165.19;5033547;28;20025;-43
2022/01/17 06:32:01;;;;;;;59.50;12.93;;;;;;;5.46;95.31;103172.34;5048630;28;20109;-42
2022/01/17 06:34:26;;;;;;;58.28;11.00;;;;;;;5.44;94.74;103171.56;5035403;28;20416;-42
2022/01/17 06:36:52;;;;;;;54.10;10.02;;;;;;;5.53;94.53;103175.47;5019948;28;20032;-43
2022/01/17 06:39:17;;;;;;;53.50;8.55;;;;;;;5.50;94.44;103180.09;5027568;28;20040;-42
2022/01/17 06:41:42;;;;;;;40.08;8.05;;;;;;;5.49;93.62;103177.50;5030345;28;20033;-42
2022/01/17 06:44:08;;;;;;;42.45;8.25;;;;;;;5.48;93.45;103176.63;5031707;28;20073;-42
2022/01/17 06:46:33;;;;;;;40.65;7.32;;;;;;;5.47;93.25;103158.00;5031482;28;20396;-43
2022/01/17 06:48:59;;;;;;;49.33;7.53;;;;;;;5.51;92.52;103180.94;5031843;28;20033;-42
2022/01/17 06:51:24;;;;;;;46.53;6.45;;;;;;;5.53;91.74;103179.03;5031972;28;20037;-42
2022/01/17 06:53:50;;;;;;;44.90;7.45;;;;;;;5.55;91.81;103192.28;5031343;28;20107;-42
2022/01/17 06:56:16;;;;;;;58.42;8.55;;;;;;;5.58;91.24;103206.34;5030782;28;20025;-42
2022/01/17 06:58:42;;;;;;;52.38;8.35;;;;;;;5.56;91.21;103208.22;5031330;28;20060;-43
2022/01/17 07:01:08;;;;;;;67.00;7.30;;;;;;;5.54;90.71;103211.94;5031571;28;20040;-42
2022/01/17 07:03:33;;;;;;;47.83;6.53;;;;;;;5.54;90.56;103223.47;5030220;28;20025;-42
2022/01/17 07:05:59;;;;;;;40.35;8.60;;;;;;;5.52;90.77;103246.75;5031016;28;20034;-43
2022/01/17 07:08:24;;;;;;;49.83;8.93;;;;;;;5.47;90.75;103239.00;5031339;28;20436;-43
2022/01/17 07:10:50;;;;;;;44.20;7.22;;;;;;;5.50;90.77;103229.94;5030650;28;20477;-42
2022/01/17 07:13:15;;;;;;;43.45;6.50;;;;;;;5.44;90.83;103239.19;5030797;28;20041;-43
2022/01/17 07:15:40;;;;;;;49.28;6.68;;;;;;;5.38;90.94;103244.88;5030573;28;20025;-43
2022/01/17 07:18:06;;;;;;;38.75;7.32;;;;;;;5.39;91.25;103245.75;5029976;28;20385;-43
2022/01/17 07:20:32;;;;;;;56.38;7.00;;;;;;;5.41;90.89;103236.69;5029702;28;20108;-43
2022/01/17 07:22:57;;;;;;;37.28;7.13;;;;;;;5.41;91.11;103231.34;5029553;28;20087;-42
2022/01/17 07:25:23;;;;;;;47.15;6.53;;;;;;;5.42;91.22;103233.06;5030205;28;20026;-42
2022/01/17 07:27:48;;;;;;;43.03;6.80;;;;;;;5.43;91.62;103242.81;5030774;28;20377;-42
2022/01/17 07:30:13;;;;;;;45.05;6.80;;;;;;;5.47;91.49;103255.03;5030581;28;20025;-42
2022/01/17 07:32:39;;;;;;;61.75;7.65;;;;;;;5.55;91.14;103245.72;5030946;28;20095;-42
2022/01/17 07:35:06;;;;;;;59.33;7.88;;;;;;;5.61;91.08;103259.56;5031324;28;20037;-42
2022/01/17 07:37:31;;;;;;;51.92;6.38;;;;;;;5.63;91.35;103264.81;5030284;28;20025;-42
2022/01/17 07:39:57;;;;;;;53.15;7.65;;;;;;;5.70;91.27;103271.53;5029418;28;20112;-42
2022/01/17 07:42:22;;;;;;;77.85;7.95;;;;;;;5.71;91.21;103262.53;5029751;28;20124;-42
2022/01/17 07:44:53;;;;;;;56.22;8.02;;;;;;;5.77;90.97;103256.84;5031065;28;20456;-42
2022/01/17 07:47:27;;;;;;;52.00;6.35;;;;;;;5.81;91.26;103245.03;5029816;28;20029;-42
2022/01/17 07:49:52;;;;;;;48.22;6.47;;;;;;;5.88;91.53;103256.22;5031070;28;21033;-42
2022/01/17 07:52:17;;;;;;;54.92;7.05;;;;;;;5.91;91.69;103270.25;5031194;28;20021;-42
2022/01/17 07:54:47;;;;;;;47.60;6.65;;;;;;;5.98;91.22;103269.91;5029092;28;20048;-42
2022/01/17 07:57:13;;;;;;;99.53;7.93;;;;;;;6.02;90.94;103268.78;5030733;28;20425;-43
2022/01/17 07:59:38;;;;;;;69.50;7.88;;;;;;;6.03;91.16;103265.13;5029266;28;20116;-42
2022/01/17 08:02:04;;;;;;;59.08;6.22;;;;;;;6.03;91.24;103273.16;5029422;28;20034;-42
2022/01/17 08:04:30;;;;;;;80.20;7.45;;;;;;;6.14;91.26;103270.72;5029473;28;20470;-43
2022/01/17 08:06:55;;;;;;;58.78;5.78;;;;;;;6.16;91.44;103274.13;5030804;28;20075;-43
2022/01/17 08:09:26;;;;;;;62.38;6.65;;;;;;;6.19;91.11;103268.63;5030887;28;20052;-43
2022/01/17 08:11:52;;;;;;;59.58;6.22;;;;;;;6.21;90.93;103274.72;5030649;28;20152;-43
2022/01/17 08:14:18;;;;;;;54.28;6.40;;;;;;;6.29;90.18;103277.81;5031046;28;20021;-43
2022/01/17 08:16:43;;;;;;;51.90;5.85;;;;;;;6.28;90.51;103284.09;5031114;28;20441;-43
2022/01/17 08:19:09;;;;;;;53.53;5.88;;;;;;;6.35;90.02;103284.59;5030770;28;20053;-43
2022/01/17 08:21:34;;;;;;;44.47;5.35;;;;;;;6.40;89.52;103281.59;5030654;28;20109;-45
2022/01/17 08:24:00;;;;;;;70.45;6.82;;;;;;;6.36;89.90;103284.47;5046738;28;20188;-43
2022/01/17 08:26:26;;;;;;;57.88;5.38;;;;;;;6.38;89.47;103285.25;5035176;28;20388;-43
2022/01/17 08:28:52;;;;;;;46.38;4.38;;;;;;;6.41;89.77;103284.19;5034333;28;20048;-43
2022/01/17 08:31:17;;;;;;;58.10;5.55;;;;;;;6.48;89.39;103295.41;5035030;28;20017;-43
2022/01/17 08:33:42;;;;;;;48.03;5.20;;;;;;;6.49;89.38;103297.97;5034580;28;20763;-43
2022/01/17 08:36:08;;;;;;;56.95;6.03;;;;;;;6.58;88.92;103307.22;5035245;28;20036;-43
2022/01/17 08:38:34;;;;;;;61.50;8.15;;;;;;;6.57;88.71;103284.97;5034654;28;20392;-43
2022/01/17 08:41:00;;;;;;;52.55;5.05;;;;;;;6.57;89.11;103276.09;5034605;28;20025;-44
2022/01/17 08:43:27;;;;;;;67.97;6.78;;;;;;;6.60;89.21;103284.75;5034952;28;20048;-43
2022/01/17 08:45:53;;;;;;;54.47;5.68;;;;;;;6.67;88.70;103279.91;5034417;28;20080;-43
2022/01/17 08:48:19;;;;;;;48.13;5.82;;;;;;;6.70;88.93;103279.72;5034231;28;20025;-43
2022/01/17 08:50:47;;;;;;;76.50;6.20;;;;;;;6.72;88.76;103291.19;5032941;28;20029;-44
2022/01/17 08:53:13;;;;;;;51.53;5.30;;;;;;;6.80;89.10;103290.69;5034677;28;20036;-43
2022/01/17 08:55:39;;;;;;;43.10;5.15;;;;;;;6.81;88.83;103290.59;5034242;28;20057;-43
2022/01/17 08:58:06;;;;;;;62.28;6.47;;;;;;;6.87;88.61;103301.88;5034396;28;20119;-43
2022/01/17 09:00:31;;;;;;;63.10;7.25;;;;;;;6.90;88.59;103313.25;5033239;28;20084;-44
2022/01/17 09:02:57;;;;;;;54.28;4.63;;;;;;;6.97;87.80;103311.03;5032952;28;20030;-43
2022/01/17 09:05:23;;;;;;;67.50;5.82;;;;;;;6.99;87.83;103322.50;5033408;28;20038;-43
2022/01/17 09:07:48;;;;;;;62.58;6.00;;;;;;;6.95;88.27;103315.63;5032199;28;20053;-43
2022/01/17 09:10:13;;;;;;;46.58;4.15;;;;;;;7.08;87.63;103327.25;5028929;28;20041;-43
2022/01/17 09:12:39;;;;;;;64.10;5.07;;;;;;;7.14;87.28;103326.03;5033827;28;20030;-42
2022/01/17 09:15:04;;;;;;;59.05;5.53;;;;;;;7.19;87.15;103327.47;5034050;28;20032;-43
2022/01/17 09:17:30;;;;;;;52.33;7.28;;;;;;;7.19;87.59;103332.81;5034440;28;20041;-43
2022/01/17 09:19:55;;;;;;;55.60;5.68;;;;;;;7.21;87.39;103340.72;5033394;28;20053;-43
2022/01/17 09:22:20;;;;;;;60.53;6.68;;;;;;;7.15;87.50;103342.00;5034742;28;20037;-42
2022/01/17 09:24:46;;;;;;;47.60;5.15;;;;;;;7.18;87.84;103338.25;5034033;28;20469;-43
2022/01/17 09:27:15;;;;;;;55.33;5.80;;;;;;;7.26;87.29;103357.38;5034464;28;20112;-42
2022/01/17 09:29:40;;;;;;;64.53;7.32;;;;;;;7.25;87.22;103356.50;5049586;28;20076;-43
2022/01/17 09:32:07;;;;;;;63.33;6.20;;;;;;;7.30;87.14;103366.09;5034218;28;20385;-42
2022/01/17 09:34:33;;;;;;;68.68;6.65;;;;;;;7.26;87.02;103363.59;5033843;28;20029;-43
2022/01/17 09:36:58;;;;;;;43.40;5.43;;;;;;;7.24;87.15;103359.28;5033749;28;20079;-42
2022/01/17 09:39:23;;;;;;;44.95;4.82;;;;;;;7.23;87.41;103363.78;5032193;28;20094;-42
2022/01/17 09:41:49;;;;;;;60.58;5.20;;;;;;;7.25;87.33;103363.69;5033762;28;20045;-43
2022/01/17 09:44:14;;;;;;;61.45;5.65;;;;;;;7.20;87.53;103355.94;5049189;28;20033;-44
2022/01/17 09:46:46;;;;;;;45.78;5.50;;;;;;;7.20;87.43;103363.13;5033962;28;20438;-43
2022/01/17 09:49:33;;;;;;;47.72;5.47;;;;;;;7.23;87.41;103379.00;5049009;28;20033;-43
2022/01/17 09:52:06;;;;;;;69.13;5.32;;;;;;;7.26;87.42;103379.66;5032208;28;20091;-43
2022/01/17 09:54:39;;;;;;;44.95;4.35;;;;;;;7.33;87.06;103379.28;5030601;28;20033;-43
2022/01/17 09:57:06;;;;;;;55.08;6.43;;;;;;;7.42;86.63;103384.03;5033417;28;20418;-43
2022/01/17 09:59:33;;;;;;;54.03;5.38;;;;;;;7.56;86.25;103384.00;5033798;28;20029;-43
2022/01/17 10:01:59;;;;;;;56.55;6.05;;;;;;;7.80;85.90;103378.00;5033986;28;20112;-43
2022/01/17 10:04:24;;;;;;;53.80;6.15;;;;;;;7.82;86.02;103392.16;5032248;28;20084;-44
2022/01/17 10:07:00;;;;;;;64.22;6.22;;;;;;;7.93;84.75;103408.41;5032661;28;20033;-43
2022/01/17 10:09:26;;;;;;;61.92;6.38;;;;;;;7.94;84.76;103398.53;5033502;28;20513;-43
2022/01/17 10:12:01;;;;;;;51.40;4.85;;;;;;;7.98;84.50;103400.03;5033744;28;20037;-43
2022/01/17 10:14:28;;;;;;;47.88;4.07;;;;;;;8.04;84.20;103408.53;5033597;28;20026;-43
2022/01/17 10:16:54;;;;;;;63.00;4.90;;;;;;;8.03;84.55;103406.84;5033408;28;20025;-43
2022/01/17 10:19:22;;;;;;;53.47;5.57;;;;;;;8.02;84.38;103409.59;5033519;28;20326;-44
2022/01/17 10:21:52;;;;;;;57.13;4.78;;;;;;;8.01;84.52;103424.00;5033723;28;20028;-43
2022/01/17 10:27:49;;;;;;;63.55;4.68;;;;;;;8.00;84.54;103412.38;5020892;28;20171;-43
2022/01/17 10:30:36;;;;;;;57.28;5.53;;;;;;;7.97;84.41;103428.69;5033412;28;20041;-43
2022/01/17 10:35:40;;;;;;;61.60;5.97;;;;;;;7.99;83.92;103425.91;5032659;28;20439;-43
2022/01/17 10:38:14;;;;;;;55.30;5.32;;;;;;;7.99;83.64;103429.44;5032559;28;20094;-43
2022/01/17 10:40:42;;;;;;;57.05;5.35;;;;;;;7.96;84.90;103421.59;5030700;28;20029;-43
2022/01/17 10:43:19;;;;;;;64.45;4.97;;;;;;;8.02;83.73;103429.22;5032961;28;20025;-42
2022/01/17 10:45:44;;;;;;;44.72;4.22;;;;;;;7.96;84.13;103418.06;5048124;28;20057;-42
2022/01/17 10:48:10;;;;;;;83.53;7.00;;;;;;;7.99;84.22;103424.09;5030857;28;20025;-43
2022/01/17 10:50:39;;;;;;;59.35;5.80;;;;;;;8.04;83.69;103416.59;5028261;28;20029;-41
2022/01/17 10:53:08;;;;;;;59.75;7.45;;;;;;;8.14;83.36;103424.91;5031628;28;20493;-45
2022/01/17 10:55:36;;;;;;;62.85;4.95;;;;;;;8.25;83.16;103421.50;5032208;28;20032;-44
2022/01/17 10:58:08;;;;;;;68.00;4.82;;;;;;;8.34;82.81;103431.59;5048242;28;20076;-43
2022/01/17 11:00:40;;;;;;;74.13;5.03;;;;;;;8.30;82.70;103440.81;5032009;28;20056;-44
2022/01/17 11:03:07;;;;;;;41.47;4.78;;;;;;;8.34;82.47;103437.81;5031627;28;20228;-43
2022/01/17 11:05:35;;;;;;;60.78;6.30;;;;;;;8.28;82.76;103442.75;5036036;28;20063;-42
2022/01/17 11:08:02;;;;;;;70.00;6.43;;;;;;;8.37;82.44;103447.47;5051879;28;20060;-43
2022/01/17 11:10:36;;;;;;;84.25;5.45;;;;;;;8.42;81.76;103458.78;5039990;28;20485;-42
2022/01/17 11:13:04;;;;;;;46.63;4.63;;;;;;;8.40;82.03;103463.41;5030632;28;20033;-42
2022/01/17 11:15:32;;;;;;;72.80;6.53;;;;;;;8.29;82.82;103460.53;5032077;28;20026;-43
2022/01/17 11:18:03;;;;;;;66.32;5.63;;;;;;;8.27;82.61;103454.44;5030158;28;20481;-43
2022/01/17 11:20:29;;;;;;;48.63;4.47;;;;;;;8.27;82.79;103451.75;5027746;28;20025;-42
2022/01/17 11:22:57;;;;;;;64.15;5.53;;;;;;;8.32;82.42;103454.97;5016309;28;20498;-42
2022/01/17 11:25:26;;;;;;;56.13;4.50;;;;;;;8.27;82.96;103454.44;5030833;28;20075;-43
2022/01/17 11:27:51;;;;;;;59.83;5.35;;;;;;;8.22;83.45;103460.13;5032536;28;20022;-43
2022/01/17 11:30:17;;;;;;;46.33;5.38;;;;;;;8.25;83.02;103434.91;5031970;28;20036;-43
2022/01/17 11:32:47;;;;;;;49.53;4.00;;;;;;;8.31;82.57;103455.94;5032166;28;20064;-43
2022/01/17 11:35:13;;;;;;;48.80;5.50;;;;;;;8.31;82.34;103448.75;5031134;28;20029;-43
2022/01/17 11:37:42;;;;;;;68.05;4.40;;;;;;;8.27;82.40;103447.25;5030691;28;20076;-43
2022/01/17 11:40:09;;;;;;;49.83;4.15;;;;;;;8.32;82.79;103449.59;5027797;28;20438;-43
2022/01/17 11:42:47;;;;;;;48.83;5.87;;;;;;;8.34;82.84;103453.03;5027571;28;20108;-44
2022/01/17 11:45:21;;;;;;;64.38;6.82;;;;;;;8.32;83.09;103455.84;5028821;28;20028;-43
2022/01/17 11:47:52;;;;;;;55.88;6.78;;;;;;;8.41;82.96;103451.72;5036967;28;20036;-42